Time;durP1;ratioP1;P1;durP2;ratioP2;P2;SDS_P1;SDS_P2;PMS_P1;PMS_P2;Temp;Humidity;BMP_temperature;BMP_pressure;BME280_temperature;BME280_humidity;BME280_pressure;Samples;Min_cycle;Max_cycle;Signal;HPM_P1;HPM_P2
2023/06/05 00:00:37;;;;;;;10.45;6.57;;;;;;;-148.88;100.00;-17125.47;4963576;29;20027;-84
2023/06/05 00:03:03;;;;;;;8.27;3.97;;;;;;;-148.88;100.00;-17125.47;4958688;28;20027;-83
2023/06/05 00:05:29;;;;;;;13.05;6.97;;;;;;;-148.88;100.00;-17125.47;4957635;29;20042;-83
2023/06/05 00:07:55;;;;;;;9.90;4.00;;;;;;;-148.88;100.00;-17125.47;4958628;28;20035;-82
2023/06/05 00:10:20;;;;;;;10.68;4.25;;;;;;;-148.88;100.00;-17125.47;4957660;29;20034;-84
2023/06/05 00:12:46;;;;;;;10.35;6.95;;;;;;;-148.88;100.00;-17125.47;4964198;28;20046;-83
2023/06/05 00:15:11;;;;;;;11.45;6.97;;;;;;;-148.88;100.00;-17125.47;4963226;28;20050;-85
2023/06/05 00:17:37;;;;;;;10.65;7.00;;;;;;;-148.88;100.00;-17125.47;4962448;28;20031;-85
2023/06/05 00:20:03;;;;;;;8.05;4.45;;;;;;;-148.88;100.00;-17125.47;4962046;28;20370;-85
2023/06/05 00:22:31;;;;;;;11.60;7.25;;;;;;;-148.88;100.00;-17125.47;4961828;28;20111;-85
2023/06/05 00:24:57;;;;;;;11.77;7.97;;;;;;;-148.88;100.00;-17125.47;4960269;29;20085;-84
2023/06/05 00:27:23;;;;;;;8.68;4.30;;;;;;;-148.88;100.00;-17125.47;4961548;28;20078;-85
2023/06/05 00:29:49;;;;;;;11.32;7.70;;;;;;;-148.88;100.00;-17125.47;4961109;29;20520;-85
2023/06/05 00:32:15;;;;;;;13.85;7.93;;;;;;;-148.88;100.00;-17125.47;4959294;29;20382;-85
2023/06/05 00:34:40;;;;;;;11.23;7.80;;;;;;;-148.88;100.00;-17125.47;4959208;29;20023;-84
2023/06/05 00:37:06;;;;;;;9.20;4.78;;;;;;;-148.88;100.00;-17125.47;4958285;29;20030;-82
2023/06/05 00:39:31;;;;;;;12.20;4.35;;;;;;;-148.88;100.00;-17125.47;4957203;28;20035;-83
2023/06/05 00:41:57;;;;;;;12.30;7.82;;;;;;;-148.88;100.00;-17125.47;4956775;28;20506;-83
2023/06/05 00:44:22;;;;;;;11.15;4.68;;;;;;;-148.88;100.00;-17125.47;4957050;28;20024;-82
2023/06/05 00:46:50;;;;;;;8.02;4.15;;;;;;;-148.88;100.00;-17125.47;4956421;29;20090;-82
2023/06/05 00:49:16;;;;;;;12.57;8.18;;;;;;;-148.88;100.00;-17125.47;4957177;28;20019;-84
2023/06/05 00:51:42;;;;;;;12.80;4.65;;;;;;;-148.88;100.00;-17125.47;4957622;28;20074;-83
2023/06/05 00:54:08;;;;;;;10.95;7.82;;;;;;;-148.88;100.00;-17125.47;4957381;28;20019;-83
2023/06/05 00:56:35;;;;;;;7.13;4.22;;;;;;;-148.88;100.00;-17125.47;4957574;28;20553;-84
2023/06/05 00:59:01;;;;;;;12.68;8.23;;;;;;;-148.88;100.00;-17125.47;4955912;29;20054;-82
2023/06/05 01:01:28;;;;;;;9.35;4.45;;;;;;;-148.88;100.00;-17125.47;4957566;28;20063;-83
2023/06/05 01:03:57;;;;;;;13.00;8.80;;;;;;;-148.88;100.00;-17125.47;4957114;28;20027;-83
2023/06/05 01:06:27;;;;;;;8.93;4.35;;;;;;;-148.88;100.00;-17125.47;4956382;29;20034;-83
2023/06/05 01:08:53;;;;;;;10.32;4.40;;;;;;;-148.88;100.00;-17125.47;4957433;28;20038;-83
2023/06/05 01:11:40;;;;;;;10.40;5.03;;;;;;;-148.88;100.00;-17125.47;4955662;29;20469;-81
2023/06/05 01:14:22;;;;;;;12.18;5.07;;;;;;;-148.88;100.00;-17125.47;4956789;29;20051;-82
2023/06/05 01:16:56;;;;;;;12.77;5.90;;;;;;;-148.88;100.00;-17125.47;4956123;29;20438;-82
2023/06/05 01:19:24;;;;;;;15.43;9.82;;;;;;;-148.88;100.00;-17125.47;4955424;29;20050;-82
2023/06/05 01:21:51;;;;;;;15.50;10.00;;;;;;;-148.88;100.00;-17125.47;4958309;28;20059;-83
2023/06/05 01:24:17;;;;;;;11.55;4.80;;;;;;;-148.88;100.00;-17125.47;4955392;29;20085;-83
2023/06/05 01:26:54;;;;;;;14.27;5.93;;;;;;;-148.88;100.00;-17125.47;4956468;28;20038;-83
2023/06/05 01:29:28;;;;;;;11.80;5.57;;;;;;;-148.88;100.00;-17125.47;4955048;29;20034;-83
2023/06/05 01:31:59;;;;;;;13.93;5.13;;;;;;;-148.88;100.00;-17125.47;4954890;29;20482;-82
2023/06/05 01:34:26;;;;;;;12.07;5.55;;;;;;;-148.88;100.00;-17125.47;4954961;29;20031;-83
2023/06/05 01:36:55;;;;;;;17.67;10.82;;;;;;;-148.88;100.00;-17125.47;4956064;28;20497;-83
2023/06/05 01:39:22;;;;;;;16.63;5.93;;;;;;;-148.88;100.00;-17125.47;4956481;28;20470;-83
2023/06/05 01:41:49;;;;;;;15.70;5.78;;;;;;;-148.88;100.00;-17125.47;4956100;28;20031;-81
2023/06/05 01:44:15;;;;;;;17.02;11.07;;;;;;;-148.88;100.00;-17125.47;4956171;28;20035;-83
2023/06/05 01:46:44;;;;;;;20.05;11.00;;;;;;;-148.88;100.00;-17125.47;4956195;28;20054;-83
2023/06/05 01:49:10;;;;;;;14.43;5.85;;;;;;;-148.88;100.00;-17125.47;4954716;29;20111;-82
2023/06/05 01:51:36;;;;;;;15.70;10.65;;;;;;;-148.88;100.00;-17125.47;4957057;28;20078;-83
2023/06/05 01:54:01;;;;;;;14.02;6.35;;;;;;;-148.88;100.00;-17125.47;4954372;29;20019;-82
2023/06/05 01:56:26;;;;;;;14.85;6.07;;;;;;;-148.88;100.00;-17125.47;4956091;28;20023;-83
2023/06/05 01:58:53;;;;;;;12.88;5.60;;;;;;;-148.88;100.00;-17125.47;4956007;28;20074;-83
2023/06/05 02:01:22;;;;;;;15.13;6.22;;;;;;;-148.88;100.00;-17125.47;4958045;28;20434;-85
2023/06/05 02:03:53;;;;;;;18.35;11.20;;;;;;;-148.88;100.00;-17125.47;4960134;29;20042;-85
2023/06/05 02:06:18;;;;;;;13.65;5.82;;;;;;;-148.88;100.00;-17125.47;4960895;28;20054;-84
2023/06/05 02:08:44;;;;;;;16.55;10.93;;;;;;;-148.88;100.00;-17125.47;4960578;28;20030;-83
2023/06/05 02:11:10;;;;;;;16.58;6.72;;;;;;;-148.88;100.00;-17125.47;4958884;28;20059;-83
2023/06/05 02:13:43;;;;;;;14.18;6.47;;;;;;;-148.88;100.00;-17125.47;4958409;28;20019;-83
2023/06/05 02:16:10;;;;;;;15.70;5.63;;;;;;;-148.88;100.00;-17125.47;4957970;28;20074;-83
2023/06/05 02:18:38;;;;;;;19.60;6.22;;;;;;;-148.88;100.00;-17125.47;4956613;29;20051;-83
2023/06/05 02:21:04;;;;;;;15.65;11.02;;;;;;;-148.88;100.00;-17125.47;4957823;28;20023;-83
2023/06/05 02:23:29;;;;;;;20.20;11.52;;;;;;;-148.88;100.00;-17125.47;4955522;29;20038;-83
2023/06/05 02:25:55;;;;;;;14.98;6.57;;;;;;;-148.88;100.00;-17125.47;4957237;28;20421;-84
2023/06/05 02:28:21;;;;;;;15.70;5.80;;;;;;;-148.88;100.00;-17125.47;4956888;28;20382;-83
2023/06/05 02:30:47;;;;;;;14.95;6.57;;;;;;;-148.88;100.00;-17125.47;4955124;29;20441;-83
2023/06/05 02:33:14;;;;;;;17.02;10.82;;;;;;;-148.88;100.00;-17125.47;4953895;29;20050;-82
2023/06/05 02:35:40;;;;;;;18.77;6.35;;;;;;;-148.88;100.00;-17125.47;4953827;29;20051;-83
2023/06/05 02:38:07;;;;;;;15.77;6.68;;;;;;;-148.88;100.00;-17125.47;4955414;28;20106;-82
2023/06/05 02:40:32;;;;;;;19.23;6.00;;;;;;;-148.88;100.00;-17125.47;4954322;28;20035;-82
2023/06/05 02:42:58;;;;;;;13.85;6.18;;;;;;;-148.88;100.00;-17125.47;4955389;28;20055;-83
2023/06/05 02:45:23;;;;;;;20.55;12.10;;;;;;;-148.88;100.00;-17125.47;4955224;28;20454;-83
2023/06/05 02:47:49;;;;;;;21.75;13.05;;;;;;;-148.88;100.00;-17125.47;4955400;28;20398;-83
2023/06/05 02:50:14;;;;;;;22.48;12.98;;;;;;;-148.88;100.00;-17125.47;4954744;29;20027;-81
2023/06/05 02:52:40;;;;;;;18.20;7.13;;;;;;;-148.88;100.00;-17125.47;4955186;28;20024;-83
2023/06/05 02:55:07;;;;;;;21.40;7.13;;;;;;;-148.88;100.00;-17125.47;4955303;28;20034;-82
2023/06/05 02:57:41;;;;;;;19.63;12.63;;;;;;;-148.88;100.00;-17125.47;4956238;28;20027;-82
2023/06/05 03:00:08;;;;;;;;;;;;;;;-148.88;100.00;-17125.47;4956338;28;20035;-82
2023/06/05 03:02:36;;;;;;;17.75;6.75;;;;;;;-148.88;100.00;-17125.47;4954667;29;19914;-83
2023/06/05 03:05:02;;;;;;;22.73;14.10;;;;;;;-148.88;100.00;-17125.47;4956243;28;20062;-83
2023/06/05 03:07:27;;;;;;;21.10;7.20;;;;;;;-148.88;100.00;-17125.47;4954908;28;20038;-82
2023/06/05 03:09:55;;;;;;;18.02;7.70;;;;;;;-148.88;100.00;-17125.47;4955207;28;20019;-83
2023/06/05 03:12:21;;;;;;;14.35;6.35;;;;;;;-148.88;100.00;-17125.47;4957783;28;20099;-83
2023/06/05 03:14:46;;;;;;;20.80;7.45;;;;;;;-148.88;100.00;-17125.47;4959701;28;20054;-83
2023/06/05 03:17:12;;;;;;;18.27;8.00;;;;;;;-148.88;100.00;-17125.47;4959000;28;20035;-83
2023/06/05 03:19:37;;;;;;;24.27;7.25;;;;;;;-148.88;100.00;-17125.47;4959434;29;20027;-82
2023/06/05 03:22:04;;;;;;;22.60;8.23;;;;;;;-148.88;100.00;-17125.47;4958864;28;20031;-83
2023/06/05 03:24:29;;;;;;;19.00;7.47;;;;;;;-148.88;100.00;-17125.47;4959058;28;20106;-83
2023/06/05 03:26:54;;;;;;;25.80;14.82;;;;;;;-148.88;100.00;-17125.47;4957750;29;20031;-82
2023/06/05 03:29:20;;;;;;;17.05;6.90;;;;;;;-148.88;100.00;-17125.47;4958600;28;20054;-82
2023/06/05 03:31:45;;;;;;;18.08;7.47;;;;;;;-148.88;100.00;-17125.47;4957772;29;20034;-83
2023/06/05 03:34:10;;;;;;;16.70;6.82;;;;;;;-148.88;100.00;-17125.47;4957905;29;20023;-83
2023/06/05 03:36:39;;;;;;;19.30;7.57;;;;;;;-148.88;100.00;-17125.47;4959323;28;20035;-85
2023/06/05 03:39:05;;;;;;;20.33;7.28;;;;;;;-148.88;100.00;-17125.47;4958836;28;20394;-83
2023/06/05 03:41:30;;;;;;;17.30;6.80;;;;;;;-148.88;100.00;-17125.47;4979826;23;20055;-86
2023/06/05 03:43:56;;;;;;;23.83;14.77;;;;;;;-148.88;100.00;-17125.47;4974160;28;20051;-84
2023/06/05 03:46:23;;;;;;;22.75;7.50;;;;;;;-148.88;100.00;-17125.47;4959236;29;20023;-84
2023/06/05 03:48:49;;;;;;;19.70;8.02;;;;;;;-148.88;100.00;-17125.47;4957473;29;20106;-82
2023/06/05 03:51:18;;;;;;;20.83;7.40;;;;;;;-148.88;100.00;-17125.47;4958714;29;20030;-83
2023/06/05 03:53:54;;;;;;;21.00;8.10;;;;;;;-148.88;100.00;-17125.47;4958734;28;20086;-81
2023/06/05 03:56:21;;;;;;;21.08;8.32;;;;;;;-148.88;100.00;-17125.47;4957910;28;20077;-84
2023/06/05 03:58:48;;;;;;;16.58;8.50;;;;;;;-148.88;100.00;-17125.47;4957195;29;20590;-85
2023/06/05 04:01:14;;;;;;;21.73;7.75;;;;;;;-148.88;100.00;-17125.47;4957953;29;20027;-84
2023/06/05 04:03:40;;;;;;;21.67;7.65;;;;;;;-148.88;100.00;-17125.47;4957500;29;20617;-86
2023/06/05 04:06:05;;;;;;;19.40;8.13;;;;;;;-148.88;100.00;-17125.47;4957366;29;20512;-85
2023/06/05 04:08:32;;;;;;;32.35;15.50;;;;;;;-148.88;100.00;-17125.47;4956954;29;20070;-85
2023/06/05 04:10:57;;;;;;;22.23;8.82;;;;;;;-148.88;100.00;-17125.47;4957936;28;20023;-85
2023/06/05 04:13:22;;;;;;;20.35;7.30;;;;;;;-148.88;100.00;-17125.47;4958118;29;20516;-86
2023/06/05 04:15:48;;;;;;;22.48;7.82;;;;;;;-148.88;100.00;-17125.47;4956999;29;20122;-86
2023/06/05 04:18:14;;;;;;;18.02;7.60;;;;;;;-148.88;100.00;-17125.47;4956886;29;20038;-86
2023/06/05 04:20:40;;;;;;;29.45;16.33;;;;;;;-148.88;100.00;-17125.47;4958457;28;20023;-86
2023/06/05 04:23:06;;;;;;;20.73;8.00;;;;;;;-148.88;100.00;-17125.47;4956990;28;20023;-86
2023/06/05 04:25:31;;;;;;;20.48;8.05;;;;;;;-148.88;100.00;-17125.47;4956651;29;20494;-85
2023/06/05 04:27:57;;;;;;;17.25;7.63;;;;;;;-148.88;100.00;-17125.47;4956841;29;20027;-87
2023/06/05 04:30:23;;;;;;;29.10;16.00;;;;;;;-148.88;100.00;-17125.47;4957783;28;20055;-86
2023/06/05 04:32:54;;;;;;;21.38;8.02;;;;;;;-148.88;100.00;-17125.47;4956200;29;20015;-86
2023/06/05 04:35:20;;;;;;;22.23;8.80;;;;;;;-148.88;100.00;-17125.47;4956244;29;20023;-87
2023/06/05 04:37:46;;;;;;;26.92;9.50;;;;;;;-148.88;100.00;-17125.47;4956711;29;20023;-86
2023/06/05 04:40:12;;;;;;;20.63;8.48;;;;;;;-148.88;100.00;-17125.47;4956143;28;20031;-87
2023/06/05 04:42:37;;;;;;;31.27;16.33;;;;;;;-148.88;100.00;-17125.47;4957174;28;20027;-86
2023/06/05 04:45:05;;;;;;;22.30;8.63;;;;;;;-148.88;100.00;-17125.47;4956468;29;20049;-87
2023/06/05 04:47:31;;;;;;;25.15;9.25;;;;;;;-148.88;100.00;-17125.47;4956784;29;20027;-85
2023/06/05 04:50:05;;;;;;;33.67;17.85;;;;;;;-148.88;100.00;-17125.47;4957687;28;20029;-86
2023/06/05 04:52:31;;;;;;;25.20;9.27;;;;;;;-148.88;100.00;-17125.47;4957583;29;20023;-85
2023/06/05 04:54:57;;;;;;;24.27;9.50;;;;;;;-148.88;100.00;-17125.47;4957527;28;20481;-88
2023/06/05 04:57:25;;;;;;;38.15;19.60;;;;;;;-148.88;100.00;-17125.47;4957560;28;20404;-86
2023/06/05 04:59:52;;;;;;;22.38;10.10;;;;;;;-148.88;100.00;-17125.47;4956396;28;20050;-87
2023/06/05 05:02:17;;;;;;;33.83;18.60;;;;;;;-148.88;100.00;-17125.47;4957423;28;20078;-87
2023/06/05 05:04:43;;;;;;;27.55;9.68;;;;;;;-148.88;100.00;-17125.47;4956369;29;20031;-87
2023/06/05 05:07:13;;;;;;;32.47;10.02;;;;;;;-148.88;100.00;-17125.47;4955979;29;20054;-88
2023/06/05 05:09:38;;;;;;;29.35;17.90;;;;;;;-148.88;100.00;-17125.47;4956969;29;20486;-87
2023/06/05 05:12:04;;;;;;;23.98;9.32;;;;;;;-148.88;100.00;-17125.47;4957416;28;20048;-86
2023/06/05 05:14:29;;;;;;;31.88;18.27;;;;;;;-148.88;100.00;-17125.47;4956752;29;20023;-87
2023/06/05 05:16:55;;;;;;;31.13;16.80;;;;;;;-148.88;100.00;-17125.47;4955935;29;20031;-86
2023/06/05 05:19:22;;;;;;;29.67;17.70;;;;;;;-148.88;100.00;-17125.47;4956442;28;20027;-86
2023/06/05 05:21:47;;;;;;;23.75;9.20;;;;;;;-148.88;100.00;-17125.47;4956088;29;20073;-86
2023/06/05 05:24:13;;;;;;;20.60;9.38;;;;;;;-148.88;100.00;-17125.47;4956760;28;20518;-87
2023/06/05 05:26:39;;;;;;;32.25;17.83;;;;;;;-148.88;100.00;-17125.47;4955510;29;20023;-87
2023/06/05 05:29:05;;;;;;;23.63;9.25;;;;;;;-148.88;100.00;-17125.47;4955411;29;20027;-86
2023/06/05 05:31:31;;;;;;;24.33;9.52;;;;;;;-148.88;100.00;-17125.47;4955182;29;20181;-86
2023/06/05 05:33:57;;;;;;;29.45;16.65;;;;;;;-148.88;100.00;-17125.47;4956751;28;20090;-87
2023/06/05 05:36:23;;;;;;;30.13;16.52;;;;;;;-148.88;100.00;-17125.47;4955944;28;20034;-86
2023/06/05 05:38:51;;;;;;;24.70;14.70;;;;;;;-148.88;100.00;-17125.47;4955394;28;20023;-86
2023/06/05 05:41:17;;;;;;;28.90;15.18;;;;;;;-148.88;100.00;-17125.47;4956576;28;20032;-87
2023/06/05 05:43:42;;;;;;;19.67;7.10;;;;;;;-148.88;100.00;-17125.47;4955137;28;20031;-88
2023/06/05 05:46:08;;;;;;;24.42;14.27;;;;;;;-148.88;100.00;-17125.47;4955050;29;20442;-88
2023/06/05 05:48:37;;;;;;;22.70;13.80;;;;;;;-148.88;100.00;-17125.47;4956174;29;20118;-87
2023/06/05 05:51:04;;;;;;;21.50;12.57;;;;;;;-148.88;100.00;-17125.47;4956366;28;20485;-88
2023/06/05 05:53:29;;;;;;;20.77;13.88;;;;;;;-148.88;100.00;-17125.47;4954984;28;20031;-85
2023/06/05 05:55:55;;;;;;;21.85;13.90;;;;;;;-148.88;100.00;-17125.47;4957134;28;20118;-87
2023/06/05 05:58:20;;;;;;;22.60;14.00;;;;;;;-148.88;100.00;-17125.47;4956160;28;20077;-87
2023/06/05 06:00:47;;;;;;;23.88;13.32;;;;;;;-148.88;100.00;-17125.47;4955734;28;20105;-87
2023/06/05 06:03:14;;;;;;;22.67;13.48;;;;;;;-148.88;100.00;-17125.47;4955841;28;20478;-86
2023/06/05 06:05:40;;;;;;;20.67;11.95;;;;;;;-148.88;100.00;-17125.47;4955864;28;20050;-87
2023/06/05 06:08:06;;;;;;;19.08;12.90;;;;;;;-148.88;100.00;-17125.47;4954516;29;20486;-87
2023/06/05 06:10:31;;;;;;;19.48;12.45;;;;;;;-148.88;100.00;-17125.47;4954938;29;20103;-87
2023/06/05 06:12:57;;;;;;;18.67;11.38;;;;;;;-148.88;100.00;-17125.47;4954941;29;20019;-87
2023/06/05 06:15:22;;;;;;;18.88;12.75;;;;;;;-148.88;100.00;-17125.47;4955889;28;20027;-87
2023/06/05 06:17:48;;;;;;;20.60;13.57;;;;;;;-148.88;100.00;-17125.47;4954542;28;20371;-87
2023/06/05 06:20:13;;;;;;;24.42;13.57;;;;;;;-148.88;100.00;-17125.47;4954272;29;20027;-86
2023/06/05 06:22:40;;;;;;;23.70;12.32;;;;;;;-148.88;100.00;-17125.47;4954196;29;20034;-84
2023/06/05 06:25:06;;;;;;;17.20;11.93;;;;;;;-148.88;100.00;-17125.47;4956119;28;20104;-86
2023/06/05 06:27:32;;;;;;;20.35;12.55;;;;;;;-148.88;100.00;-17125.47;4954915;29;20078;-86
2023/06/05 06:29:58;;;;;;;16.05;11.60;;;;;;;-148.88;100.00;-17125.47;4955715;29;20059;-85
2023/06/05 06:32:25;;;;;;;19.95;11.02;;;;;;;-148.88;100.00;-17125.47;4955572;28;20031;-86
2023/06/05 06:34:51;;;;;;;16.40;11.27;;;;;;;-148.88;100.00;-17125.47;4954354;28;20027;-85
2023/06/05 06:37:17;;;;;;;21.30;11.20;;;;;;;-148.88;100.00;-17125.47;4955407;28;20027;-84
2023/06/05 06:39:43;;;;;;;16.23;10.20;;;;;;;-148.88;100.00;-17125.47;4955614;28;20037;-85
2023/06/05 06:42:12;;;;;;;18.35;10.23;;;;;;;-148.88;100.00;-17125.47;4954957;28;20118;-86
2023/06/05 06:44:38;;;;;;;16.05;10.15;;;;;;;-148.88;100.00;-17125.47;4955517;28;20034;-84
2023/06/05 06:47:06;;;;;;;13.52;9.65;;;;;;;-148.88;100.00;-17125.47;4955270;28;20027;-86
2023/06/05 06:49:31;;;;;;;15.63;10.20;;;;;;;-148.88;100.00;-17125.47;4953955;29;20038;-86
2023/06/05 06:51:57;;;;;;;15.35;9.85;;;;;;;-148.88;100.00;-17125.47;4955297;28;20031;-86
2023/06/05 06:54:22;;;;;;;14.38;8.95;;;;;;;-148.88;100.00;-17125.47;4955173;29;20054;-86
2023/06/05 06:56:49;;;;;;;16.35;10.00;;;;;;;-148.88;100.00;-17125.47;4955158;28;20033;-86
2023/06/05 06:59:15;;;;;;;16.08;11.60;;;;;;;-148.88;100.00;-17125.47;4954082;29;20027;-86
2023/06/05 07:01:48;;;;;;;18.20;11.32;;;;;;;-148.88;100.00;-17125.47;4955271;29;20386;-87
2023/06/05 07:04:19;;;;;;;21.02;12.13;;;;;;;-148.88;100.00;-17125.47;4955045;28;20028;-87
2023/06/05 07:06:45;;;;;;;16.63;11.40;;;;;;;-148.88;100.00;-17125.47;4954693;28;20035;-85
2023/06/05 07:09:11;;;;;;;16.38;11.20;;;;;;;-148.88;100.00;-17125.47;4955487;28;20019;-85
2023/06/05 07:11:36;;;;;;;19.95;11.98;;;;;;;-148.88;100.00;-17125.47;4955587;28;20023;-86
2023/06/05 07:14:01;;;;;;;16.30;10.68;;;;;;;-148.88;100.00;-17125.47;4955279;28;20377;-86
2023/06/05 07:16:27;;;;;;;17.00;10.55;;;;;;;-148.88;100.00;-17125.47;4955404;29;20031;-86
2023/06/05 07:18:53;;;;;;;18.23;10.68;;;;;;;-148.88;100.00;-17125.47;4955089;28;20023;-86
2023/06/05 07:21:19;;;;;;;16.15;9.55;;;;;;;-148.88;100.00;-17125.47;4954312;29;20042;-86
2023/06/05 07:23:47;;;;;;;16.63;10.23;;;;;;;-148.88;100.00;-17125.47;4955143;28;20035;-85
2023/06/05 07:26:15;;;;;;;17.35;10.63;;;;;;;-148.88;100.00;-17125.47;4955871;28;20032;-86
2023/06/05 07:28:41;;;;;;;15.65;10.27;;;;;;;-148.88;100.00;-17125.47;4955063;28;20051;-86
2023/06/05 07:31:06;;;;;;;18.25;10.63;;;;;;;-148.88;100.00;-17125.47;4953769;29;20101;-87
2023/06/05 07:33:32;;;;;;;16.60;10.35;;;;;;;-148.88;100.00;-17125.47;4954837;28;20034;-86
2023/06/05 07:35:59;;;;;;;20.73;11.25;;;;;;;-148.88;100.00;-17125.47;4954962;28;20542;-87
2023/06/05 07:38:26;;;;;;;14.25;10.55;;;;;;;-148.88;100.00;-17125.47;4953569;29;20051;-86
2023/06/05 07:40:52;;;;;;;13.93;9.68;;;;;;;-148.88;100.00;-17125.47;4954635;28;20413;-87
2023/06/05 07:43:17;;;;;;;19.38;9.98;;;;;;;-148.88;100.00;-17125.47;4954838;28;20027;-87
2023/06/05 07:45:43;;;;;;;15.32;9.10;;;;;;;-148.88;100.00;-17125.47;4955207;28;20035;-86
2023/06/05 07:48:08;;;;;;;13.50;9.10;;;;;;;-148.88;100.00;-17125.47;4955432;28;20055;-88
2023/06/05 07:50:34;;;;;;;13.30;8.85;;;;;;;-148.88;100.00;-17125.47;4955174;28;20035;-87
2023/06/05 07:53:01;;;;;;;14.23;10.65;;;;;;;-148.88;100.00;-17125.47;4954071;28;20027;-86
2023/06/05 07:55:26;;;;;;;15.32;10.55;;;;;;;-148.88;100.00;-17125.47;4954353;29;20090;-88
2023/06/05 07:57:52;;;;;;;15.05;9.65;;;;;;;-148.88;100.00;-17125.47;4953850;28;20023;-87
2023/06/05 08:00:19;;;;;;;12.88;9.60;;;;;;;-148.88;100.00;-17125.47;4958982;28;20474;-87
2023/06/05 08:02:45;;;;;;;12.82;10.18;;;;;;;-148.88;100.00;-17125.47;4959072;28;20039;-87
2023/06/05 08:05:10;;;;;;;18.23;10.63;;;;;;;-148.88;100.00;-17125.47;4957011;28;20112;-87
2023/06/05 08:07:36;;;;;;;15.48;10.07;;;;;;;-148.88;100.00;-17125.47;4958417;29;20107;-86
2023/06/05 08:10:01;;;;;;;15.48;10.32;;;;;;;-148.88;100.00;-17125.47;4956857;29;20055;-88
2023/06/05 08:12:27;;;;;;;13.18;9.90;;;;;;;-148.88;100.00;-17125.47;4958010;28;20549;-88
2023/06/05 08:14:53;;;;;;;12.73;8.93;;;;;;;-148.88;99.24;-17125.47;4956771;29;20110;-88
2023/06/05 08:17:18;;;;;;;14.10;10.32;;;;;;;-148.88;100.00;-17125.47;4956821;29;20035;-88
2023/06/05 08:19:44;;;;;;;16.33;9.30;;;;;;;-148.88;100.00;-17125.47;4956828;29;20502;-87
2023/06/05 08:22:09;;;;;;;11.52;8.95;;;;;;;-148.88;97.80;-17125.47;4956760;29;20023;-88
2023/06/05 08:24:36;;;;;;;15.70;8.75;;;;;;;-148.88;98.61;-17125.47;4956922;29;20023;-87
2023/06/05 08:27:01;;;;;;;12.95;8.40;;;;;;;-148.88;98.16;-17125.47;4956804;29;20046;-88
2023/06/05 08:29:27;;;;;;;12.90;7.90;;;;;;;-148.88;96.87;-17125.47;4956526;29;20486;-86
2023/06/05 08:31:53;;;;;;;13.43;8.20;;;;;;;-148.88;98.62;-17125.47;4956953;29;20097;-87
2023/06/05 08:34:18;;;;;;;10.07;7.63;;;;;;;-148.88;97.71;-17125.47;4956337;29;20429;-87
2023/06/05 08:36:44;;;;;;;12.57;8.15;;;;;;;-148.88;95.55;-17125.47;4956589;29;20034;-86
2023/06/05 08:39:10;;;;;;;11.40;7.90;;;;;;;-148.88;96.40;-17125.47;4957588;28;20027;-88
2023/06/05 08:41:35;;;;;;;9.98;7.40;;;;;;;-148.88;98.04;-17125.47;4957899;28;20493;-87
2023/06/05 08:44:01;;;;;;;14.13;7.88;;;;;;;-148.88;93.65;-17125.47;4955964;29;20034;-88
2023/06/05 08:46:32;;;;;;;12.43;7.55;;;;;;;-148.88;95.40;-17125.47;4957325;28;20023;-87
2023/06/05 08:49:03;;;;;;;12.95;7.75;;;;;;;-148.88;96.35;-17125.47;4957371;28;20031;-87
2023/06/05 08:51:29;;;;;;;12.02;7.65;;;;;;;-148.88;96.50;-17125.47;4956097;28;20042;-86
2023/06/05 08:54:00;;;;;;;16.25;8.45;;;;;;;-148.88;94.41;-17125.47;4956323;28;20027;-87
2023/06/05 08:56:27;;;;;;;11.35;6.95;;;;;;;-148.88;91.63;-17125.47;4957415;28;20375;-86
2023/06/05 08:58:54;;;;;;;9.82;6.70;;;;;;;-148.88;92.31;-17125.47;4957351;28;20030;-86
2023/06/05 09:01:19;;;;;;;14.32;7.82;;;;;;;-148.88;94.05;-17125.47;4957142;28;20031;-89
2023/06/05 09:03:45;;;;;;;12.93;7.18;;;;;;;-148.88;90.88;-17125.47;4956292;28;20138;-87
2023/06/05 09:06:10;;;;;;;11.63;7.05;;;;;;;-148.88;90.12;-17125.47;4955978;28;20034;-88
2023/06/05 09:08:36;;;;;;;12.43;6.28;;;;;;;-148.88;93.38;-17125.47;4957245;28;20031;-87
2023/06/05 09:11:30;;;;;;;8.63;6.20;;;;;;;-148.88;90.41;-17125.47;4956408;28;20023;-89
2023/06/05 09:14:00;;;;;;;9.10;6.10;;;;;;;-148.88;88.00;-17125.47;4956397;29;20031;-89
2023/06/05 09:16:37;;;;;;;9.88;5.65;;;;;;;-148.88;89.63;-17125.47;4956422;29;20070;-89
2023/06/05 09:19:03;;;;;;;9.68;6.53;;;;;;;-148.88;89.08;-17125.47;4956180;28;20059;-88
2023/06/05 09:21:30;;;;;;;11.02;5.85;;;;;;;-148.88;88.59;-17125.47;4956378;29;20031;-88
2023/06/05 09:24:31;;;;;;;11.05;6.88;;;;;;;-148.88;85.54;-17125.47;4956668;28;20036;-89
2023/06/05 09:27:05;;;;;;;7.00;5.50;;;;;;;-148.88;80.21;-17125.47;4956054;28;20521;-87
2023/06/05 09:29:36;;;;;;;10.02;5.53;;;;;;;-148.88;83.40;-17125.47;4957186;28;20425;-87
2023/06/05 09:32:04;;;;;;;8.63;5.03;;;;;;;-148.88;78.10;-17125.47;4956606;28;20023;-87
2023/06/05 09:34:35;;;;;;;9.27;6.10;;;;;;;-148.88;80.80;-17125.47;4956893;28;20023;-86
2023/06/05 09:37:05;;;;;;;10.40;5.90;;;;;;;-148.88;79.47;-17125.47;4956575;28;20027;-86
2023/06/05 09:39:33;;;;;;;8.80;5.63;;;;;;;-148.88;80.52;-17125.47;4956809;28;20031;-86
2023/06/05 09:41:59;;;;;;;8.43;5.90;;;;;;;-148.88;80.33;-17125.47;4956333;28;20061;-86
2023/06/05 09:44:26;;;;;;;7.88;5.60;;;;;;;-148.88;78.99;-17125.47;4956475;28;20498;-86
2023/06/05 09:46:55;;;;;;;8.90;5.90;;;;;;;-148.88;80.40;-17125.47;4956238;28;20111;-86
2023/06/05 09:49:31;;;;;;;8.07;5.35;;;;;;;-148.88;73.72;-17125.47;4956502;28;20078;-86
2023/06/05 09:52:01;;;;;;;8.32;5.05;;;;;;;-148.88;77.01;-17125.47;4956407;28;20070;-85
2023/06/05 09:54:29;;;;;;;8.27;4.90;;;;;;;-148.88;77.36;-17125.47;4956440;28;20023;-88
2023/06/05 09:57:01;;;;;;;8.15;4.68;;;;;;;-148.88;75.44;-17125.47;4955233;28;20082;-87
2023/06/05 09:59:34;;;;;;;6.78;4.65;;;;;;;-148.88;74.54;-17125.47;4956442;28;20505;-86
2023/06/05 10:02:05;;;;;;;7.75;5.13;;;;;;;-148.88;72.05;-17125.47;4955009;28;20027;-87
2023/06/05 10:04:39;;;;;;;9.63;4.88;;;;;;;-148.88;79.98;-17125.47;4955976;28;20062;-87
2023/06/05 10:07:04;;;;;;;;;;;;;;;-148.88;72.76;-17125.47;4956912;28;20106;-87
2023/06/05 10:09:31;;;;;;;9.13;4.35;;;;;;;-148.88;70.56;-17125.47;4954790;29;19914;-87
2023/06/05 10:11:58;;;;;;;7.43;4.80;;;;;;;-148.88;75.58;-17125.47;4955840;28;20027;-87
2023/06/05 10:14:24;;;;;;;7.97;4.82;;;;;;;-148.88;73.78;-17125.47;4956476;28;20054;-87
2023/06/05 10:16:54;;;;;;;6.78;4.45;;;;;;;-148.88;65.31;-17125.47;4956063;28;20059;-87
2023/06/05 10:19:20;;;;;;;5.63;4.00;;;;;;;-148.88;65.03;-17125.47;4954422;29;20034;-87
2023/06/05 10:21:48;;;;;;;7.90;4.18;;;;;;;-148.88;71.41;-17125.47;4955556;28;20478;-88
2023/06/05 10:24:21;;;;;;;7.88;4.55;;;;;;;-148.88;70.63;-17125.47;4955851;28;20059;-86
2023/06/05 10:27:08;;;;;;;7.32;3.70;;;;;;;-148.88;63.88;-17125.47;4955654;28;20106;-87
2023/06/05 10:29:51;;;;;;;7.95;3.58;;;;;;;-148.88;60.34;-17125.47;4956219;28;20043;-86
2023/06/05 10:32:23;;;;;;;;;;;;;;;-148.88;60.41;-17125.47;4956016;29;20027;-87
2023/06/05 10:34:51;;;;;;;7.03;3.40;;;;;;;-148.88;56.26;-17125.47;4954372;29;20373;-85
2023/06/05 10:37:36;;;;;;;4.95;2.95;;;;;;;-148.88;52.15;-17125.47;4954118;29;20106;-86
2023/06/05 10:40:04;;;;;;;6.15;2.80;;;;;;;-148.88;53.15;-17125.47;4954201;29;20023;-85
2023/06/05 10:42:29;;;;;;;7.28;3.10;;;;;;;-148.88;46.97;-17125.47;4955251;28;20034;-85
2023/06/05 10:44:55;;;;;;;5.50;3.10;;;;;;;-148.88;47.28;-17125.47;4955442;28;20027;-85
2023/06/05 10:47:51;;;;;;;6.00;2.90;;;;;;;-148.88;50.18;-17125.47;4955232;28;20030;-86
2023/06/05 10:50:19;;;;;;;4.95;3.00;;;;;;;-148.88;49.38;-17125.47;4955471;28;20034;-85
2023/06/05 10:52:46;;;;;;;4.30;2.83;;;;;;;-148.88;46.07;-17125.47;4955503;28;20494;-85
2023/06/05 10:55:12;;;;;;;4.97;2.60;;;;;;;-148.88;44.59;-17125.47;4955432;28;20054;-84